Time;durP1;ratioP1;P1;durP2;ratioP2;P2;SDS_P1;SDS_P2;PMS_P1;PMS_P2;Temp;Humidity;BMP_temperature;BMP_pressure;BME280_temperature;BME280_humidity;BME280_pressure;Samples;Min_cycle;Max_cycle;Signal;HPM_P1;HPM_P2
2023/01/03 00:00:18;;;;;;;5.95;1.90;;;;;;;;;;5041872;28;20114;-82
2023/01/03 00:02:44;;;;;;;7.57;2.13;;;;;;;;;;5034515;28;20511;-82
2023/01/03 00:05:10;;;;;;;4.88;2.08;;;;;;;;;;5073162;28;20126;-82
2023/01/03 00:07:36;;;;;;;4.65;1.85;;;;;;;;;;5033084;28;20073;-82
2023/01/03 00:10:04;;;;;;;7.10;2.03;;;;;;;;;;5038855;28;20044;-82
2023/01/03 00:12:31;;;;;;;6.03;2.00;;;;;;;;;;5049172;28;20056;-82
2023/01/03 00:14:57;;;;;;;3.42;2.22;;;;;;;;;;5035727;28;20503;-81
2023/01/03 00:17:23;;;;;;;4.05;1.88;;;;;;;;;;5038190;28;20163;-82
2023/01/03 00:19:49;;;;;;;5.13;1.90;;;;;;;;;;5071602;28;20080;-81
2023/01/03 00:22:16;;;;;;;4.85;1.80;;;;;;;;;;5032293;28;20484;-82
2023/01/03 00:24:43;;;;;;;7.45;2.08;;;;;;;;;;5043664;28;20040;-82
2023/01/03 00:27:09;;;;;;;4.72;1.95;;;;;;;;;;5047829;28;20075;-82
2023/01/03 00:29:35;;;;;;;5.30;1.70;;;;;;;;;;5044209;28;20508;-82
2023/01/03 00:32:02;;;;;;;4.57;2.05;;;;;;;;;;5036744;28;20037;-83
2023/01/03 00:34:28;;;;;;;5.47;2.08;;;;;;;;;;5044365;28;20057;-82
2023/01/03 00:36:54;;;;;;;5.95;1.77;;;;;;;;;;5045085;28;20051;-81
2023/01/03 00:39:20;;;;;;;4.80;1.85;;;;;;;;;;5031639;28;20057;-82
2023/01/03 00:41:46;;;;;;;6.30;1.92;;;;;;;;;;5040677;28;20041;-83
2023/01/03 00:44:13;;;;;;;2.50;1.85;;;;;;;;;;5033916;28;20057;-82
2023/01/03 00:46:39;;;;;;;7.25;1.90;;;;;;;;;;5039019;28;20049;-82
2023/01/03 00:49:05;;;;;;;4.95;1.80;;;;;;;;;;5036402;28;20041;-81
2023/01/03 00:51:32;;;;;;;4.22;1.75;;;;;;;;;;5043910;28;20049;-81
2023/01/03 00:54:01;;;;;;;4.60;2.20;;;;;;;;;;5033858;28;20088;-81
2023/01/03 00:56:29;;;;;;;3.08;1.58;;;;;;;;;;5038356;28;20143;-82
2023/01/03 00:58:55;;;;;;;3.72;2.38;;;;;;;;;;5042068;28;20045;-81
2023/01/03 01:01:22;;;;;;;3.47;2.40;;;;;;;;;;5036200;28;20412;-81
2023/01/03 01:03:50;;;;;;;4.18;1.90;;;;;;;;;;5041862;28;20053;-82
2023/01/03 01:06:21;;;;;;;4.63;1.92;;;;;;;;;;5038827;28;20067;-82
2023/01/03 01:08:48;;;;;;;2.33;1.52;;;;;;;;;;5034644;28;20049;-82
2023/01/03 01:11:15;;;;;;;5.82;1.80;;;;;;;;;;5041676;28;20053;-82
2023/01/03 01:13:41;;;;;;;5.53;1.95;;;;;;;;;;5034302;28;20484;-82
2023/01/03 01:16:09;;;;;;;4.28;1.70;;;;;;;;;;5045550;28;20053;-82
2023/01/03 01:18:36;;;;;;;5.05;1.60;;;;;;;;;;5044532;28;20041;-82
2023/01/03 01:21:09;;;;;;;7.50;1.70;;;;;;;;;;5043129;28;20072;-82
2023/01/03 01:23:36;;;;;;;2.88;1.50;;;;;;;;;;5031925;28;20048;-82
2023/01/03 01:26:03;;;;;;;3.78;1.70;;;;;;;;;;5045343;28;20094;-82
2023/01/03 01:28:29;;;;;;;3.92;1.80;;;;;;;;;;5037346;28;20045;-82
2023/01/03 01:30:57;;;;;;;3.90;1.83;;;;;;;;;;5037815;28;20042;-81
2023/01/03 01:33:23;;;;;;;7.32;1.90;;;;;;;;;;5034281;28;20052;-81
2023/01/03 01:35:49;;;;;;;5.93;1.63;;;;;;;;;;5035600;28;20045;-81
2023/01/03 01:38:15;;;;;;;4.85;1.65;;;;;;;;;;5038759;28;20484;-81
2023/01/03 01:40:41;;;;;;;6.40;1.92;;;;;;;;;;5043001;28;20100;-82
2023/01/03 01:46:05;;;;;;;4.10;1.77;;;;;;;;;;5043942;28;20491;-82
2023/01/03 01:48:32;;;;;;;4.10;1.80;;;;;;;;;;5037548;28;20052;-82
2023/01/03 01:50:58;;;;;;;3.55;1.63;;;;;;;;;;5040030;28;20044;-81
2023/01/03 01:53:33;;;;;;;7.25;2.03;;;;;;;;;;5041061;28;20052;-82
2023/01/03 01:56:03;;;;;;;4.75;2.28;;;;;;;;;;5036140;28;20079;-81
2023/01/03 01:58:32;;;;;;;3.47;1.80;;;;;;;;;;5040704;28;20046;-82
2023/01/03 02:00:58;;;;;;;5.07;1.90;;;;;;;;;;5046464;28;20045;-82
2023/01/03 02:03:24;;;;;;;4.47;1.77;;;;;;;;;;5041439;28;20049;-82
2023/01/03 02:05:52;;;;;;;3.05;1.60;;;;;;;;;;5041103;28;20049;-81
2023/01/03 02:08:18;;;;;;;4.75;2.03;;;;;;;;;;5041891;28;20047;-82
2023/01/03 02:11:04;;;;;;;4.00;1.95;;;;;;;;;;5040795;28;20453;-82
2023/01/03 02:13:45;;;;;;;7.10;1.98;;;;;;;;;;5038255;28;20587;-82
2023/01/03 02:16:18;;;;;;;6.68;1.77;;;;;;;;;;5042767;28;20398;-81
2023/01/03 02:18:49;;;;;;;7.20;2.30;;;;;;;;;;5036762;28;20452;-82
2023/01/03 02:21:18;;;;;;;3.28;1.92;;;;;;;;;;5044663;28;20399;-82
2023/01/03 02:24:00;;;;;;;3.42;1.80;;;;;;;;;;5045001;28;20110;-82
2023/01/03 02:26:29;;;;;;;3.13;1.63;;;;;;;;;;5044465;28;20128;-82
2023/01/03 02:29:01;;;;;;;5.80;1.80;;;;;;;;;;5069821;28;20050;-82
2023/01/03 02:31:33;;;;;;;6.18;1.67;;;;;;;;;;5041902;28;20100;-82
2023/01/03 02:34:09;;;;;;;1.60;1.50;;;;;;;;;;5037394;28;20514;-81
2023/01/03 02:36:38;;;;;;;6.88;2.00;;;;;;;;;;5038007;28;20187;-82
2023/01/03 02:39:19;;;;;;;4.80;2.25;;;;;;;;;;5040486;28;20127;-81
2023/01/03 02:44:49;;;;;;;;;;;;;;;;;;5033173;28;20042;-81
2023/01/03 02:47:15;;;;;;;3.78;1.55;;;;;;;;;;5043135;28;19973;-81
2023/01/03 02:49:43;;;;;;;3.70;1.60;;;;;;;;;;5041174;28;20049;-81
2023/01/03 02:52:11;;;;;;;6.40;1.90;;;;;;;;;;5037076;28;20544;-81
2023/01/03 02:54:40;;;;;;;4.50;1.63;;;;;;;;;;5043372;28;20064;-82
2023/01/03 02:57:08;;;;;;;4.57;1.75;;;;;;;;;;5041543;28;20071;-82
2023/01/03 02:59:40;;;;;;;5.03;1.70;;;;;;;;;;5074514;28;20403;-82
2023/01/03 03:02:08;;;;;;;5.13;1.77;;;;;;;;;;5037115;28;20476;-82
2023/01/03 03:04:35;;;;;;;4.22;1.60;;;;;;;;;;5039699;28;20042;-82
2023/01/03 03:07:11;;;;;;;3.65;1.70;;;;;;;;;;5036308;28;20043;-82
2023/01/03 03:13:11;;;;;;;3.80;1.75;;;;;;;;;;5039659;28;20511;-82
2023/01/03 03:15:09;;;;;;;4.32;1.73;;;;;;;;;;5036968;28;20045;-81
2023/01/03 03:17:36;;;;;;;2.67;1.70;;;;;;;;;;5040453;28;20131;-82
2023/01/03 03:25:44;;;;;;;4.85;1.55;;;;;;;;;;5044055;28;20090;-82
2023/01/03 03:30:58;;;;;;;5.50;1.77;;;;;;;;;;5043227;28;20045;-82
2023/01/03 03:33:25;;;;;;;4.50;1.65;;;;;;;;;;5040058;28;20490;-82
2023/01/03 03:35:54;;;;;;;2.83;1.50;;;;;;;;;;5034865;28;20045;-82
2023/01/03 03:38:24;;;;;;;5.18;1.85;;;;;;;;;;5037445;28;20488;-82
2023/01/03 03:46:59;;;;;;;3.70;2.33;;;;;;;;;;5038147;28;20041;-82
2023/01/03 03:49:38;;;;;;;3.25;1.80;;;;;;;;;;5038076;28;20049;-81
2023/01/03 03:52:07;;;;;;;5.90;1.70;;;;;;;;;;5036042;28;20037;-82
2023/01/03 03:54:37;;;;;;;6.88;1.60;;;;;;;;;;5038972;28;20487;-82
2023/01/03 03:57:07;;;;;;;4.63;1.80;;;;;;;;;;5034102;28;20496;-82
2023/01/03 03:59:33;;;;;;;5.07;1.80;;;;;;;;;;5040776;28;20034;-82
2023/01/03 04:02:02;;;;;;;6.10;1.90;;;;;;;;;;5038856;28;20373;-82
2023/01/03 04:04:31;;;;;;;4.20;2.03;;;;;;;;;;5037265;28;20075;-82
2023/01/03 04:06:57;;;;;;;4.63;1.90;;;;;;;;;;5043327;28;20056;-82
2023/01/03 04:09:23;;;;;;;4.13;1.75;;;;;;;;;;5035674;28;20048;-82
2023/01/03 04:11:49;;;;;;;6.10;2.33;;;;;;;;;;5038544;28;20048;-82
2023/01/03 04:14:15;;;;;;;3.97;2.00;;;;;;;;;;5034123;28;20056;-82
2023/01/03 04:16:41;;;;;;;2.08;1.85;;;;;;;;;;5034726;28;20081;-82
2023/01/03 04:19:07;;;;;;;5.10;1.80;;;;;;;;;;5041421;28;20037;-82
2023/01/03 04:21:35;;;;;;;3.25;1.85;;;;;;;;;;5044556;28;20033;-82
2023/01/03 04:24:01;;;;;;;1.90;1.80;;;;;;;;;;5036179;28;20132;-82
2023/01/03 04:26:27;;;;;;;4.05;2.08;;;;;;;;;;5067823;28;20139;-81
2023/01/03 04:28:53;;;;;;;3.53;2.13;;;;;;;;;;5033488;28;20156;-82
2023/01/03 04:31:19;;;;;;;5.00;2.17;;;;;;;;;;5036659;28;20045;-82
2023/01/03 04:33:45;;;;;;;5.80;2.20;;;;;;;;;;5046340;28;20060;-82
2023/01/03 04:36:11;;;;;;;3.78;2.00;;;;;;;;;;5046177;28;20061;-81
2023/01/03 04:38:37;;;;;;;6.43;1.98;;;;;;;;;;5043967;28;20120;-82
2023/01/03 04:41:04;;;;;;;2.30;1.90;;;;;;;;;;5048778;28;20041;-82
2023/01/03 04:46:15;;;;;;;4.63;2.10;;;;;;;;;;5043867;28;20050;-82
2023/01/03 04:48:41;;;;;;;5.88;2.25;;;;;;;;;;5041151;28;20045;-82
2023/01/03 04:51:07;;;;;;;3.80;1.98;;;;;;;;;;5072917;28;20045;-82
2023/01/03 04:53:33;;;;;;;2.45;1.90;;;;;;;;;;5040551;28;20439;-82
2023/01/03 04:55:59;;;;;;;2.20;1.60;;;;;;;;;;5042973;28;20042;-82
2023/01/03 04:58:25;;;;;;;3.78;1.90;;;;;;;;;;5041300;28;20077;-82
2023/01/03 05:00:51;;;;;;;4.30;1.80;;;;;;;;;;5050310;28;20399;-81
2023/01/03 05:03:17;;;;;;;4.28;1.70;;;;;;;;;;5040873;28;20096;-82
2023/01/03 05:05:43;;;;;;;2.60;1.70;;;;;;;;;;5041246;28;20091;-82
2023/01/03 05:08:10;;;;;;;2.78;1.80;;;;;;;;;;5044795;28;20079;-82
2023/01/03 05:10:40;;;;;;;2.88;1.63;;;;;;;;;;5040586;28;20450;-82
2023/01/03 05:13:06;;;;;;;2.10;1.90;;;;;;;;;;5039983;28;20115;-82
2023/01/03 05:15:35;;;;;;;4.10;1.70;;;;;;;;;;5041007;28;20052;-82
2023/01/03 05:18:01;;;;;;;3.33;2.08;;;;;;;;;;5039341;28;20056;-81
2023/01/03 05:25:58;;;;;;;5.43;2.60;;;;;;;;;;5044796;28;20119;-82
2023/01/03 05:28:24;;;;;;;4.35;2.65;;;;;;;;;;5044480;28;21439;-82
2023/01/03 05:30:50;;;;;;;5.38;3.15;;;;;;;;;;5041438;28;20033;-81
2023/01/03 05:33:16;;;;;;;4.32;2.97;;;;;;;;;;5040119;28;20499;-82
2023/01/03 05:35:45;;;;;;;4.82;3.60;;;;;;;;;;5042652;28;20100;-82
2023/01/03 05:38:11;;;;;;;6.15;3.65;;;;;;;;;;5035002;28;20127;-81
2023/01/03 05:40:37;;;;;;;6.78;3.33;;;;;;;;;;5042198;28;20096;-81
2023/01/03 05:43:03;;;;;;;5.13;3.70;;;;;;;;;;5041916;28;20539;-82
2023/01/03 05:45:29;;;;;;;3.85;3.42;;;;;;;;;;5041363;28;20183;-82
2023/01/03 05:47:58;;;;;;;8.40;3.50;;;;;;;;;;5038866;28;20139;-82
2023/01/03 05:50:24;;;;;;;5.53;3.60;;;;;;;;;;5042716;28;20079;-82
2023/01/03 05:52:50;;;;;;;3.30;3.00;;;;;;;;;;5048890;28;20085;-83
2023/01/03 05:55:16;;;;;;;5.35;3.20;;;;;;;;;;5039970;28;20043;-82
2023/01/03 05:57:42;;;;;;;6.93;3.47;;;;;;;;;;5039639;28;20535;-83
2023/01/03 06:00:09;;;;;;;6.63;3.65;;;;;;;;;;5046427;28;20110;-81
2023/01/03 06:02:35;;;;;;;4.38;3.10;;;;;;;;;;5040001;28;20064;-82
2023/01/03 06:05:01;;;;;;;6.20;3.40;;;;;;;;;;5041346;28;20041;-82
2023/01/03 06:07:29;;;;;;;8.20;3.38;;;;;;;;;;5043527;28;20094;-82
2023/01/03 06:09:56;;;;;;;7.57;3.40;;;;;;;;;;5039335;28;20037;-82
2023/01/03 06:12:22;;;;;;;5.07;3.55;;;;;;;;;;5038502;28;20056;-82
2023/01/03 06:14:48;;;;;;;4.25;3.40;;;;;;;;;;5040345;28;20400;-82
2023/01/03 06:19:58;;;;;;;4.85;3.50;;;;;;;;;;5039307;28;20098;-81
2023/01/03 06:22:24;;;;;;;6.57;3.63;;;;;;;;;;5049263;28;20051;-82
2023/01/03 06:24:50;;;;;;;4.97;3.80;;;;;;;;;;5041016;28;20144;-82
2023/01/03 06:27:16;;;;;;;7.72;3.63;;;;;;;;;;5053085;28;20135;-82
2023/01/03 06:29:42;;;;;;;7.82;4.03;;;;;;;;;;5043439;28;20545;-82
2023/01/03 06:32:08;;;;;;;4.53;3.65;;;;;;;;;;5038868;28;20045;-82
2023/01/03 06:34:34;;;;;;;9.18;4.40;;;;;;;;;;5040443;28;20488;-82
2023/01/03 06:37:00;;;;;;;7.20;4.85;;;;;;;;;;5037991;28;20480;-82
2023/01/03 06:39:26;;;;;;;7.88;4.70;;;;;;;;;;5037432;28;21615;-81
2023/01/03 06:41:52;;;;;;;9.02;6.35;;;;;;;;;;5034408;28;20083;-81
2023/01/03 06:44:18;;;;;;;9.73;6.35;;;;;;;;;;5033716;28;20053;-82
2023/01/03 06:53:10;;;;;;;13.65;8.10;;;;;;;;;;5035132;28;20053;-82
2023/01/03 06:55:14;;;;;;;18.83;12.15;;;;;;;;;;5033018;28;20404;-81
2023/01/03 06:57:40;;;;;;;19.42;12.45;;;;;;;;;;5075602;28;20049;-81
2023/01/03 07:00:07;;;;;;;18.10;13.05;;;;;;;;;;5041450;28;20056;-82
2023/01/03 07:02:33;;;;;;;20.85;13.50;;;;;;;;;;5036787;28;20033;-82
2023/01/03 07:04:59;;;;;;;22.48;13.95;;;;;;;;;;5036759;28;20040;-82
2023/01/03 07:07:25;;;;;;;20.63;13.25;;;;;;;;;;5040016;28;20051;-81
2023/01/03 07:09:51;;;;;;;24.42;15.70;;;;;;;;;;5038947;28;20045;-82
2023/01/03 07:15:04;;;;;;;19.90;14.50;;;;;;;;;;5036917;28;20041;-81
2023/01/03 07:17:30;;;;;;;23.73;15.80;;;;;;;;;;5038109;28;20132;-82
2023/01/03 07:19:56;;;;;;;23.73;16.00;;;;;;;;;;5032672;28;20163;-82
2023/01/03 07:22:22;;;;;;;22.58;15.45;;;;;;;;;;5038983;28;20131;-82
2023/01/03 07:24:48;;;;;;;26.85;16.30;;;;;;;;;;5040404;28;20071;-82
2023/01/03 07:27:14;;;;;;;23.65;15.75;;;;;;;;;;5039151;28;20511;-81
2023/01/03 07:29:40;;;;;;;22.95;15.35;;;;;;;;;;5038858;28;20037;-82
2023/01/03 07:32:06;;;;;;;23.67;16.15;;;;;;;;;;5041202;28;20044;-82
2023/01/03 07:34:32;;;;;;;24.38;15.88;;;;;;;;;;5043067;28;20053;-82
2023/01/03 07:36:58;;;;;;;23.95;15.23;;;;;;;;;;5040898;28;20057;-82
2023/01/03 07:39:24;;;;;;;24.92;15.32;;;;;;;;;;5033505;28;20411;-82
2023/01/03 07:44:35;;;;;;;23.70;16.85;;;;;;;;;;5049299;28;20170;-82
2023/01/03 07:47:01;;;;;;;22.02;16.45;;;;;;;;;;5040565;28;20373;-82
2023/01/03 07:49:27;;;;;;;25.70;17.73;;;;;;;;;;5046735;28;20408;-81
2023/01/03 07:51:53;;;;;;;22.33;16.65;;;;;;;;;;5052940;28;20492;-80
2023/01/03 07:54:19;;;;;;;23.13;17.27;;;;;;;;;;5056591;28;20564;-81
2023/01/03 07:56:45;;;;;;;28.65;18.55;;;;;;;;;;5047053;28;20554;-81
2023/01/03 07:59:11;;;;;;;29.75;18.52;;;;;;;;;;5047357;28;20041;-80
2023/01/03 08:01:37;;;;;;;27.80;19.23;;;;;;;;;;5058242;28;20094;-81
2023/01/03 08:04:03;;;;;;;26.13;18.98;;;;;;;;;;5048593;28;20033;-79
2023/01/03 08:06:29;;;;;;;28.95;18.50;;;;;;;;;;5037674;28;20059;-81
2023/01/03 08:14:25;;;;;;;29.40;20.45;;;;;;;;;;5054676;28;20149;-81
2023/01/03 08:16:51;;;;;;;31.50;19.83;;;;;;;;;;5054940;28;20068;-80
2023/01/03 08:19:17;;;;;;;32.03;21.08;;;;;;;;;;5050052;28;20471;-80
2023/01/03 08:21:43;;;;;;;33.30;18.92;;;;;;;;;;5062939;28;20048;-81
2023/01/03 08:24:09;;;;;;;46.92;17.98;;;;;;;;;;5050063;28;20048;-80
2023/01/03 08:26:35;;;;;;;74.80;19.58;;;;;;;;;;5051720;28;20045;-81
2023/01/03 08:29:01;;;;;;;121.05;26.70;;;;;;;;;;5047941;28;20084;-82
2023/01/03 08:31:29;;;;;;;82.20;22.58;;;;;;;;;;5060105;28;20546;-81
2023/01/03 08:34:02;;;;;;;93.05;22.52;;;;;;;;;;5048782;28;20059;-81
2023/01/03 08:36:30;;;;;;;51.75;22.50;;;;;;;;;;5050425;28;20053;-81
2023/01/03 08:39:01;;;;;;;52.42;23.92;;;;;;;;;;5046370;28;20075;-80
2023/01/03 08:41:30;;;;;;;57.38;24.13;;;;;;;;;;5046299;28;20124;-81
2023/01/03 08:43:57;;;;;;;38.65;21.23;;;;;;;;;;5078499;28;20495;-80
2023/01/03 08:46:23;;;;;;;40.15;19.00;;;;;;;;;;5069261;28;20542;-80
2023/01/03 08:48:49;;;;;;;30.23;19.45;;;;;;;;;;5048156;28;20195;-80
2023/01/03 08:51:15;;;;;;;55.08;21.05;;;;;;;;;;5050392;28;20503;-80
2023/01/03 08:53:41;;;;;;;31.73;19.88;;;;;;;;;;5047874;28;20052;-81
2023/01/03 08:56:07;;;;;;;32.08;17.92;;;;;;;;;;5047321;28;20049;-81
2023/01/03 08:58:33;;;;;;;58.90;18.70;;;;;;;;;;5041053;28;20044;-81
2023/01/03 09:01:04;;;;;;;38.88;19.00;;;;;;;;;;5044114;28;20053;-80
2023/01/03 09:03:31;;;;;;;61.80;20.92;;;;;;;;;;5043841;28;20373;-80
2023/01/03 09:06:01;;;;;;;58.80;19.65;;;;;;;;;;5037858;28;20056;-80
2023/01/03 09:08:32;;;;;;;63.60;20.58;;;;;;;;;;5038152;28;20049;-80
2023/01/03 09:10:58;;;;;;;42.95;23.42;;;;;;;;;;5043805;28;20049;-76
2023/01/03 09:13:24;;;;;;;61.97;24.17;;;;;;;;;;5043474;28;20049;-76
2023/01/03 09:15:50;;;;;;;52.78;25.60;;;;;;;;;;5047737;28;20499;-75
2023/01/03 09:18:16;;;;;;;52.45;24.60;;;;;;;;;;5058704;28;20075;-75
2023/01/03 09:20:42;;;;;;;48.72;25.48;;;;;;;;;;5049390;28;20064;-75
2023/01/03 09:23:08;;;;;;;43.58;25.20;;;;;;;;;;5039044;28;20480;-76
2023/01/03 09:25:34;;;;;;;40.53;25.27;;;;;;;;;;5043870;28;20047;-76
2023/01/03 09:28:00;;;;;;;40.22;25.02;;;;;;;;;;5045469;28;20044;-76
2023/01/03 09:30:26;;;;;;;42.25;26.35;;;;;;;;;;5083232;28;20048;-74
2023/01/03 09:32:52;;;;;;;41.67;26.92;;;;;;;;;;5048930;28;20596;-75
2023/01/03 09:35:18;;;;;;;40.97;26.00;;;;;;;;;;5045258;28;20064;-76
2023/01/03 09:37:46;;;;;;;45.97;28.23;;;;;;;;;;5048764;28;20028;-75
2023/01/03 09:40:12;;;;;;;47.15;29.25;;;;;;;;;;5045615;28;20565;-75
2023/01/03 09:45:31;;;;;;;54.47;33.10;;;;;;;;;;5038585;28;20052;-76
2023/01/03 09:47:58;;;;;;;56.20;32.58;;;;;;;;;;5040412;28;20489;-76
2023/01/03 09:50:27;;;;;;;58.55;34.60;;;;;;;;;;5044508;28;20559;-76
2023/01/03 10:04:13;;;;;;;49.55;31.70;;;;;;;;;;5033246;28;20049;-75
2023/01/03 10:06:42;;;;;;;49.25;30.35;;;;;;;;;;5043785;28;20041;-76
2023/01/03 10:09:30;;;;;;;48.63;30.45;;;;;;;;;;5041409;28;20041;-76
2023/01/03 10:12:05;;;;;;;50.95;30.48;;;;;;;;;;5036674;28;20124;-75
2023/01/03 10:14:50;;;;;;;53.63;33.20;;;;;;;;;;5036644;28;20052;-75
2023/01/03 10:17:27;;;;;;;51.97;33.50;;;;;;;;;;5079914;28;20459;-75
2023/01/03 10:20:02;;;;;;;48.38;31.33;;;;;;;;;;5043396;28;20103;-75
2023/01/03 10:22:29;;;;;;;47.25;30.95;;;;;;;;;;5041817;28;20049;-75
2023/01/03 10:24:59;;;;;;;52.63;31.17;;;;;;;;;;5039403;28;20186;-75
2023/01/03 10:27:26;;;;;;;51.38;32.80;;;;;;;;;;5045601;28;20400;-75
2023/01/03 10:29:55;;;;;;;53.50;30.25;;;;;;;;;;5044076;28;20052;-75
2023/01/03 10:32:21;;;;;;;49.55;31.70;;;;;;;;;;5043822;28;20040;-75
2023/01/03 10:35:00;;;;;;;50.35;31.05;;;;;;;;;;5055266;28;20070;-75
2023/01/03 10:37:26;;;;;;;49.42;30.42;;;;;;;;;;5048413;28;20060;-75
2023/01/03 10:40:03;;;;;;;48.35;31.35;;;;;;;;;;5041014;28;20041;-75
2023/01/03 10:42:32;;;;;;;49.53;32.08;;;;;;;;;;5049508;28;20140;-75
2023/01/03 10:45:03;;;;;;;49.33;31.40;;;;;;;;;;5039258;28;20041;-75
2023/01/03 10:47:29;;;;;;;46.90;30.90;;;;;;;;;;5076836;28;20049;-73
2023/01/03 10:50:03;;;;;;;48.95;32.35;;;;;;;;;;5042232;28;20124;-74
2023/01/03 10:52:30;;;;;;;46.92;30.48;;;;;;;;;;5048360;28;20063;-74
2023/01/03 10:55:00;;;;;;;51.60;30.83;;;;;;;;;;5046220;28;20140;-74
2023/01/03 10:57:42;;;;;;;46.78;30.25;;;;;;;;;;5047340;28;20044;-74
2023/01/03 11:00:20;;;;;;;50.00;30.77;;;;;;;;;;5042220;28;20106;-73
2023/01/03 11:02:46;;;;;;;51.92;31.05;;;;;;;;;;5040489;28;20408;-73
2023/01/03 11:05:20;;;;;;;45.83;29.42;;;;;;;;;;5043683;28;20072;-73
2023/01/03 11:08:05;;;;;;;47.70;30.75;;;;;;;;;;5075889;28;20041;-74
2023/01/03 11:10:37;;;;;;;47.60;30.25;;;;;;;;;;5042853;28;20050;-74
2023/01/03 11:13:23;;;;;;;45.35;29.80;;;;;;;;;;5039251;28;20894;-74
2023/01/03 11:15:52;;;;;;;48.28;30.73;;;;;;;;;;5042445;28;20045;-74
2023/01/03 11:18:19;;;;;;;44.20;29.23;;;;;;;;;;5045312;28;20103;-75
2023/01/03 11:21:04;;;;;;;39.92;26.90;;;;;;;;;;5048331;28;20053;-75
2023/01/03 11:23:33;;;;;;;42.72;28.40;;;;;;;;;;5048627;28;20060;-75
2023/01/03 11:26:07;;;;;;;40.65;26.98;;;;;;;;;;5049403;28;20040;-75
2023/01/03 11:28:39;;;;;;;41.72;25.23;;;;;;;;;;5054054;28;20037;-75
2023/01/03 11:31:44;;;;;;;39.67;26.80;;;;;;;;;;5035030;28;20054;-74
2023/01/03 11:34:28;;;;;;;41.63;25.15;;;;;;;;;;5057260;28;20044;-77
2023/01/03 11:36:59;;;;;;;39.85;26.75;;;;;;;;;;5047596;28;20063;-73
2023/01/03 11:39:35;;;;;;;40.53;26.63;;;;;;;;;;5042436;28;20048;-75
2023/01/03 11:42:04;;;;;;;41.33;24.98;;;;;;;;;;5052173;28;20078;-74
2023/01/03 11:44:42;;;;;;;39.58;26.92;;;;;;;;;;5044935;28;20052;-75
2023/01/03 11:47:11;;;;;;;35.15;24.38;;;;;;;;;;5044714;28;20392;-75
2023/01/03 11:49:56;;;;;;;41.22;26.50;;;;;;;;;;5047079;28;20041;-75
2023/01/03 11:52:28;;;;;;;36.88;24.48;;;;;;;;;;5043539;28;20055;-75
2023/01/03 11:55:15;;;;;;;39.45;25.88;;;;;;;;;;5051329;28;20072;-75
2023/01/03 11:57:50;;;;;;;35.72;24.70;;;;;;;;;;5047182;28;20052;-75
2023/01/03 12:00:31;;;;;;;34.35;23.08;;;;;;;;;;5044982;28;20064;-74
2023/01/03 12:02:57;;;;;;;38.58;25.05;;;;;;;;;;5043918;28;20484;-74
2023/01/03 12:05:38;;;;;;;37.10;24.48;;;;;;;;;;5046852;28;20141;-74
2023/01/03 12:08:21;;;;;;;47.65;30.38;;;;;;;;;;5051496;28;20040;-74
2023/01/03 12:11:13;;;;;;;36.03;23.45;;;;;;;;;;5048674;28;20052;-74
2023/01/03 12:13:48;;;;;;;36.60;25.42;;;;;;;;;;5042326;28;20130;-74
2023/01/03 12:16:22;;;;;;;46.15;27.25;;;;;;;;;;5078657;28;20052;-74
2023/01/03 12:19:00;;;;;;;43.25;26.65;;;;;;;;;;5070102;28;20103;-74
2023/01/03 12:21:34;;;;;;;42.17;25.63;;;;;;;;;;5041622;28;20478;-74
2023/01/03 12:24:00;;;;;;;41.38;25.13;;;;;;;;;;5042077;28;20051;-75
2023/01/03 12:26:28;;;;;;;40.85;26.02;;;;;;;;;;5049092;28;20388;-75
2023/01/03 12:29:06;;;;;;;39.65;25.40;;;;;;;;;;5049284;28;20055;-75
2023/01/03 12:31:37;;;;;;;48.10;28.38;;;;;;;;;;5048245;28;20040;-75
2023/01/03 12:34:21;;;;;;;50.92;26.35;;;;;;;;;;5057299;28;20052;-74
2023/01/03 12:37:01;;;;;;;45.40;26.30;;;;;;;;;;5058060;28;20080;-75
2023/01/03 12:39:36;;;;;;;44.67;27.85;;;;;;;;;;5042567;28;20105;-75
2023/01/03 12:42:05;;;;;;;45.15;27.33;;;;;;;;;;5045898;28;20488;-74
2023/01/03 12:44:35;;;;;;;51.03;30.08;;;;;;;;;;5047406;28;20403;-75
2023/01/03 12:47:02;;;;;;;43.58;26.95;;;;;;;;;;5036753;28;20061;-75
2023/01/03 12:49:28;;;;;;;42.25;26.98;;;;;;;;;;5035088;28;20041;-74
2023/01/03 12:51:54;;;;;;;41.22;26.10;;;;;;;;;;5037882;28;20033;-74
2023/01/03 12:54:39;;;;;;;46.97;26.90;;;;;;;;;;5045976;28;20408;-75
2023/01/03 12:57:17;;;;;;;43.05;27.65;;;;;;;;;;5045263;28;20048;-74
2023/01/03 13:00:05;;;;;;;47.05;27.67;;;;;;;;;;5038642;28;20091;-74
2023/01/03 13:02:49;;;;;;;45.25;27.35;;;;;;;;;;5046586;28;20053;-74
2023/01/03 13:05:18;;;;;;;44.42;27.90;;;;;;;;;;5039020;28;20037;-75
2023/01/03 13:08:08;;;;;;;47.22;28.08;;;;;;;;;;5043926;28;20072;-75
2023/01/03 13:10:37;;;;;;;42.97;25.02;;;;;;;;;;5015507;28;20057;-75
2023/01/03 13:13:03;;;;;;;42.00;26.90;;;;;;;;;;5035170;28;20052;-75
2023/01/03 13:15:30;;;;;;;43.58;27.25;;;;;;;;;;5042510;28;20059;-75
2023/01/03 13:18:15;;;;;;;41.25;25.73;;;;;;;;;;5038625;28;20055;-74
2023/01/03 13:20:41;;;;;;;48.72;27.27;;;;;;;;;;5040739;28;20045;-75
2023/01/03 13:23:26;;;;;;;47.13;28.13;;;;;;;;;;5043914;28;20041;-74
2023/01/03 13:26:04;;;;;;;41.63;25.85;;;;;;;;;;5036156;28;20049;-75
2023/01/03 13:28:37;;;;;;;46.85;25.98;;;;;;;;;;5077392;28;20061;-75
2023/01/03 13:31:21;;;;;;;47.97;26.75;;;;;;;;;;5045199;28;20102;-75
2023/01/03 13:33:47;;;;;;;42.55;27.65;;;;;;;;;;5042781;28;20492;-75
2023/01/03 13:36:16;;;;;;;46.53;27.08;;;;;;;;;;5043574;28;20045;-75
2023/01/03 13:38:43;;;;;;;44.08;28.15;;;;;;;;;;5053838;28;20044;-75
2023/01/03 13:41:27;;;;;;;47.00;29.10;;;;;;;;;;5045621;28;20879;-74
2023/01/03 13:43:54;;;;;;;47.92;26.98;;;;;;;;;;5043799;28;20137;-75
2023/01/03 13:46:20;;;;;;;47.33;28.05;;;;;;;;;;5042828;28;20094;-75
2023/01/03 13:49:06;;;;;;;45.50;27.08;;;;;;;;;;5050923;28;20073;-74
2023/01/03 13:51:38;;;;;;;46.92;27.15;;;;;;;;;;5045760;28;20060;-74
2023/01/03 13:54:25;;;;;;;52.13;28.80;;;;;;;;;;5045153;28;20060;-74
2023/01/03 13:56:51;;;;;;;48.65;27.85;;;;;;;;;;5049241;28;20090;-75
2023/01/03 13:59:26;;;;;;;51.65;29.90;;;;;;;;;;5046002;28;20489;-75
2023/01/03 14:01:52;;;;;;;46.97;28.00;;;;;;;;;;5043245;28;20124;-75
2023/01/03 14:04:27;;;;;;;42.47;25.25;;;;;;;;;;5046170;28;20425;-75
2023/01/03 14:07:12;;;;;;;42.58;27.67;;;;;;;;;;5040916;28;20334;-75
2023/01/03 14:09:50;;;;;;;42.13;27.77;;;;;;;;;;5050940;28;20048;-74
2023/01/03 14:12:25;;;;;;;49.05;28.23;;;;;;;;;;5037307;28;20125;-74
2023/01/03 14:14:55;;;;;;;51.40;27.35;;;;;;;;;;5041551;28;20056;-75
2023/01/03 14:17:25;;;;;;;42.63;27.25;;;;;;;;;;5041118;28;20049;-75
2023/01/03 14:19:53;;;;;;;43.40;25.83;;;;;;;;;;5047960;28;20548;-74
2023/01/03 14:22:23;;;;;;;37.92;24.40;;;;;;;;;;5043216;28;20391;-74
2023/01/03 14:24:51;;;;;;;41.72;24.73;;;;;;;;;;5042141;28;20116;-75
2023/01/03 14:27:18;;;;;;;40.28;24.65;;;;;;;;;;5045041;28;20045;-74
2023/01/03 14:29:48;;;;;;;42.97;25.33;;;;;;;;;;5044663;28;20049;-76
2023/01/03 14:32:20;;;;;;;39.22;25.13;;;;;;;;;;5071879;28;20057;-75
2023/01/03 14:34:46;;;;;;;40.97;25.88;;;;;;;;;;5048520;28;20414;-75
2023/01/03 14:37:13;;;;;;;39.60;24.92;;;;;;;;;;5047167;28;20469;-75
2023/01/03 14:39:39;;;;;;;42.08;25.00;;;;;;;;;;5050816;28;20132;-75
2023/01/03 14:42:06;;;;;;;41.30;26.90;;;;;;;;;;5052177;28;20041;-76
2023/01/03 14:44:33;;;;;;;39.78;24.98;;;;;;;;;;5052590;28;20396;-78
2023/01/03 14:47:02;;;;;;;39.25;25.08;;;;;;;;;;5052515;28;20064;-76
2023/01/03 14:49:34;;;;;;;35.20;24.25;;;;;;;;;;5048070;28;20388;-73
2023/01/03 14:52:03;;;;;;;35.72;23.83;;;;;;;;;;5045610;28;20075;-72
2023/01/03 14:54:30;;;;;;;34.90;23.35;;;;;;;;;;5045718;28;20055;-72
2023/01/03 14:56:56;;;;;;;37.50;23.83;;;;;;;;;;5040827;28;20049;-72
2023/01/03 14:59:22;;;;;;;32.97;22.52;;;;;;;;;;5043256;28;20049;-73
2023/01/03 15:01:48;;;;;;;32.50;21.38;;;;;;;;;;5047603;28;20044;-76
2023/01/03 15:04:16;;;;;;;37.50;21.90;;;;;;;;;;5080312;28;20045;-75
2023/01/03 15:07:02;;;;;;;34.22;21.80;;;;;;;;;;5048586;28;20526;-76
2023/01/03 15:09:32;;;;;;;34.10;21.08;;;;;;;;;;5051226;28;20039;-76
2023/01/03 15:11:58;;;;;;;32.33;19.95;;;;;;;;;;5060461;28;20120;-76
2023/01/03 15:14:25;;;;;;;27.27;19.65;;;;;;;;;;5044670;28;20056;-72
2023/01/03 15:16:59;;;;;;;27.88;18.23;;;;;;;;;;5043381;28;20130;-72
2023/01/03 15:19:27;;;;;;;27.02;18.42;;;;;;;;;;5050862;28;20044;-72
2023/01/03 15:22:05;;;;;;;29.27;18.55;;;;;;;;;;5048077;28;20052;-72
2023/01/03 15:24:32;;;;;;;28.33;18.33;;;;;;;;;;5053092;28;20153;-72
2023/01/03 15:26:58;;;;;;;25.00;16.35;;;;;;;;;;5050728;28;20041;-72
2023/01/03 15:29:27;;;;;;;24.83;15.18;;;;;;;;;;5047355;28;20067;-72
2023/01/03 15:31:53;;;;;;;29.60;17.65;;;;;;;;;;5048066;28;20562;-72
2023/01/03 15:34:28;;;;;;;26.98;17.88;;;;;;;;;;5045031;28;20073;-72
2023/01/03 15:36:56;;;;;;;26.10;17.42;;;;;;;;;;5050453;28;20178;-72
2023/01/03 15:39:24;;;;;;;26.83;17.83;;;;;;;;;;5049811;28;20049;-72
2023/01/03 15:44:39;;;;;;;22.83;15.88;;;;;;;;;;5048354;28;20053;-72
2023/01/03 15:47:06;;;;;;;22.60;16.45;;;;;;;;;;5037644;28;20041;-75
2023/01/03 15:49:37;;;;;;;27.13;17.85;;;;;;;;;;5080321;28;20044;-76